sensor_id;sensor_type;location;lat;lon;timestamp;P1;durP1;ratioP1;P2;durP2;ratioP2
33810;SDS011;20119;48.334;16.206;2023-08-24T05:09:45;17.70;;;14.75;;
33810;SDS011;20119;48.334;16.206;2023-08-24T05:12:13;17.20;;;14.15;;
33810;SDS011;20119;48.334;16.206;2023-08-24T05:14:40;15.07;;;13.48;;
33810;SDS011;20119;48.334;16.206;2023-08-24T05:17:08;13.95;;;12.50;;
33810;SDS011;20119;48.334;16.206;2023-08-24T05:19:35;14.38;;;12.55;;
33810;SDS011;20119;48.334;16.206;2023-08-24T05:22:02;13.73;;;12.30;;
33810;SDS011;20119;48.334;16.206;2023-08-24T05:24:29;15.30;;;11.63;;
33810;SDS011;20119;48.334;16.206;2023-08-24T05:26:57;12.43;;;10.70;;
33810;SDS011;20119;48.334;16.206;2023-08-24T05:29:24;12.95;;;10.38;;
33810;SDS011;20119;48.334;16.206;2023-08-24T05:31:51;13.90;;;9.77;;
33810;SDS011;20119;48.334;16.206;2023-08-24T05:34:18;15.65;;;8.98;;
33810;SDS011;20119;48.334;16.206;2023-08-24T05:36:45;16.08;;;9.88;;
33810;SDS011;20119;48.334;16.206;2023-08-24T05:39:11;16.38;;;9.30;;
33810;SDS011;20119;48.334;16.206;2023-08-24T05:41:38;10.85;;;9.10;;
33810;SDS011;20119;48.334;16.206;2023-08-24T05:44:07;12.38;;;9.00;;
33810;SDS011;20119;48.334;16.206;2023-08-24T05:46:34;11.75;;;9.05;;
33810;SDS011;20119;48.334;16.206;2023-08-24T05:49:01;11.43;;;9.13;;
33810;SDS011;20119;48.334;16.206;2023-08-24T05:51:28;10.85;;;8.70;;
33810;SDS011;20119;48.334;16.206;2023-08-24T05:53:55;10.00;;;8.82;;
33810;SDS011;20119;48.334;16.206;2023-08-24T05:56:23;12.88;;;8.85;;
33810;SDS011;20119;48.334;16.206;2023-08-24T05:58:50;11.88;;;8.50;;
33810;SDS011;20119;48.334;16.206;2023-08-24T06:01:18;15.30;;;9.93;;
33810;SDS011;20119;48.334;16.206;2023-08-24T06:03:45;12.20;;;9.45;;
33810;SDS011;20119;48.334;16.206;2023-08-24T06:06:12;10.15;;;8.32;;
33810;SDS011;20119;48.334;16.206;2023-08-24T06:08:39;10.20;;;8.68;;
33810;SDS011;20119;48.334;16.206;2023-08-24T06:11:06;13.70;;;9.05;;
33810;SDS011;20119;48.334;16.206;2023-08-24T06:13:33;10.63;;;8.95;;
33810;SDS011;20119;48.334;16.206;2023-08-24T06:16:00;11.40;;;8.93;;
33810;SDS011;20119;48.334;16.206;2023-08-24T06:18:29;12.82;;;8.85;;
33810;SDS011;20119;48.334;16.206;2023-08-24T06:20:56;12.35;;;8.43;;
33810;SDS011;20119;48.334;16.206;2023-08-24T06:23:22;10.07;;;8.65;;
33810;SDS011;20119;48.334;16.206;2023-08-24T06:25:49;12.57;;;8.75;;
33810;SDS011;20119;48.334;16.206;2023-08-24T06:28:16;12.15;;;9.27;;
33810;SDS011;20119;48.334;16.206;2023-08-24T06:30:43;9.98;;;8.02;;
33810;SDS011;20119;48.334;16.206;2023-08-24T06:33:11;12.85;;;9.52;;
33810;SDS011;20119;48.334;16.206;2023-08-24T06:35:40;11.18;;;8.65;;
33810;SDS011;20119;48.334;16.206;2023-08-24T06:38:07;12.90;;;8.75;;
33810;SDS011;20119;48.334;16.206;2023-08-24T06:40:34;12.68;;;8.93;;
33810;SDS011;20119;48.334;16.206;2023-08-24T06:43:00;13.48;;;10.32;;
33810;SDS011;20119;48.334;16.206;2023-08-24T06:45:27;13.00;;;10.43;;
33810;SDS011;20119;48.334;16.206;2023-08-24T06:47:54;11.85;;;10.65;;
33810;SDS011;20119;48.334;16.206;2023-08-24T06:50:21;15.98;;;10.60;;
33810;SDS011;20119;48.334;16.206;2023-08-24T06:52:50;11.98;;;10.25;;
33810;SDS011;20119;48.334;16.206;2023-08-24T06:55:16;13.88;;;10.18;;
33810;SDS011;20119;48.334;16.206;2023-08-24T06:57:47;11.88;;;9.80;;
33810;SDS011;20119;48.334;16.206;2023-08-24T07:00:15;13.15;;;10.60;;
33810;SDS011;20119;48.334;16.206;2023-08-24T07:02:43;11.88;;;10.60;;
33810;SDS011;20119;48.334;16.206;2023-08-24T07:05:10;11.95;;;10.27;;
33810;SDS011;20119;48.334;16.206;2023-08-24T07:07:37;10.88;;;9.75;;
33810;SDS011;20119;48.334;16.206;2023-08-24T07:10:07;13.45;;;9.20;;
33810;SDS011;20119;48.334;16.206;2023-08-24T07:12:34;11.68;;;9.02;;
33810;SDS011;20119;48.334;16.206;2023-08-24T07:15:01;13.52;;;9.95;;
33810;SDS011;20119;48.334;16.206;2023-08-24T07:17:28;12.25;;;8.85;;
33810;SDS011;20119;48.334;16.206;2023-08-24T07:19:55;17.55;;;10.48;;
33810;SDS011;20119;48.334;16.206;2023-08-24T07:22:22;12.70;;;10.18;;
33810;SDS011;20119;48.334;16.206;2023-08-24T07:24:51;10.93;;;9.75;;
33810;SDS011;20119;48.334;16.206;2023-08-24T07:27:19;14.70;;;9.73;;
33810;SDS011;20119;48.334;16.206;2023-08-24T07:29:47;10.90;;;8.85;;
33810;SDS011;20119;48.334;16.206;2023-08-24T07:32:13;10.82;;;9.77;;
33810;SDS011;20119;48.334;16.206;2023-08-24T07:34:40;11.15;;;8.95;;
33810;SDS011;20119;48.334;16.206;2023-08-24T07:37:07;11.30;;;10.15;;
33810;SDS011;20119;48.334;16.206;2023-08-24T07:39:34;10.75;;;8.60;;
33810;SDS011;20119;48.334;16.206;2023-08-24T07:42:01;11.32;;;9.32;;
33810;SDS011;20119;48.334;16.206;2023-08-24T07:44:30;12.43;;;9.23;;
33810;SDS011;20119;48.334;16.206;2023-08-24T07:46:57;11.00;;;9.15;;
33810;SDS011;20119;48.334;16.206;2023-08-24T07:49:24;9.57;;;8.13;;
33810;SDS011;20119;48.334;16.206;2023-08-24T07:51:51;11.40;;;7.85;;
33810;SDS011;20119;48.334;16.206;2023-08-24T07:54:17;11.52;;;8.50;;
33810;SDS011;20119;48.334;16.206;2023-08-24T07:56:45;9.63;;;8.30;;
33810;SDS011;20119;48.334;16.206;2023-08-24T07:59:12;8.98;;;8.07;;
33810;SDS011;20119;48.334;16.206;2023-08-24T08:01:40;12.88;;;7.60;;
33810;SDS011;20119;48.334;16.206;2023-08-24T08:04:07;13.18;;;8.32;;
33810;SDS011;20119;48.334;16.206;2023-08-24T08:06:34;10.23;;;7.80;;
33810;SDS011;20119;48.334;16.206;2023-08-24T08:09:01;10.43;;;7.85;;
33810;SDS011;20119;48.334;16.206;2023-08-24T08:11:28;8.38;;;7.47;;
33810;SDS011;20119;48.334;16.206;2023-08-24T08:13:55;9.27;;;7.85;;
33810;SDS011;20119;48.334;16.206;2023-08-24T08:16:22;7.63;;;6.93;;
33810;SDS011;20119;48.334;16.206;2023-08-24T08:18:50;10.27;;;7.70;;
33810;SDS011;20119;48.334;16.206;2023-08-24T08:21:18;10.48;;;7.78;;
33810;SDS011;20119;48.334;16.206;2023-08-24T08:23:45;9.20;;;8.13;;
33810;SDS011;20119;48.334;16.206;2023-08-24T08:26:12;8.23;;;6.82;;
33810;SDS011;20119;48.334;16.206;2023-08-24T08:28:39;8.68;;;7.32;;
33810;SDS011;20119;48.334;16.206;2023-08-24T08:31:06;11.88;;;7.57;;
33810;SDS011;20119;48.334;16.206;2023-08-24T08:33:33;9.95;;;7.63;;
33810;SDS011;20119;48.334;16.206;2023-08-24T08:36:01;8.65;;;7.75;;
33810;SDS011;20119;48.334;16.206;2023-08-24T08:38:29;10.20;;;7.80;;
33810;SDS011;20119;48.334;16.206;2023-08-24T08:40:56;9.93;;;7.72;;
33810;SDS011;20119;48.334;16.206;2023-08-24T08:43:28;8.40;;;7.50;;
33810;SDS011;20119;48.334;16.206;2023-08-24T08:45:56;10.40;;;7.82;;
33810;SDS011;20119;48.334;16.206;2023-08-24T08:48:24;8.45;;;7.18;;
33810;SDS011;20119;48.334;16.206;2023-08-24T08:50:51;7.30;;;6.63;;
33810;SDS011;20119;48.334;16.206;2023-08-24T08:53:22;9.65;;;7.45;;
33810;SDS011;20119;48.334;16.206;2023-08-24T08:55:50;8.90;;;7.03;;
33810;SDS011;20119;48.334;16.206;2023-08-24T08:58:19;9.68;;;6.70;;
33810;SDS011;20119;48.334;16.206;2023-08-24T09:00:46;9.32;;;6.93;;
33810;SDS011;20119;48.334;16.206;2023-08-24T09:03:14;8.65;;;6.32;;
33810;SDS011;20119;48.334;16.206;2023-08-24T09:05:44;8.85;;;6.97;;
33810;SDS011;20119;48.334;16.206;2023-08-24T09:08:13;9.73;;;6.78;;
33810;SDS011;20119;48.334;16.206;2023-08-24T09:10:43;11.03;;;7.03;;
33810;SDS011;20119;48.334;16.206;2023-08-24T09:13:10;10.77;;;6.85;;
33810;SDS011;20119;48.334;16.206;2023-08-24T09:15:37;9.60;;;6.90;;
33810;SDS011;20119;48.334;16.206;2023-08-24T09:18:04;7.32;;;6.55;;
33810;SDS011;20119;48.334;16.206;2023-08-24T09:20:31;12.93;;;6.18;;
33810;SDS011;20119;48.334;16.206;2023-08-24T09:22:59;6.93;;;6.25;;
33810;SDS011;20119;48.334;16.206;2023-08-24T09:25:26;9.23;;;6.38;;
33810;SDS011;20119;48.334;16.206;2023-08-24T09:27:58;9.27;;;6.93;;
33810;SDS011;20119;48.334;16.206;2023-08-24T09:30:31;10.27;;;6.78;;
33810;SDS011;20119;48.334;16.206;2023-08-24T09:33:01;10.82;;;7.07;;
33810;SDS011;20119;48.334;16.206;2023-08-24T09:35:29;11.43;;;6.70;;
33810;SDS011;20119;48.334;16.206;2023-08-24T09:38:14;9.32;;;7.00;;
33810;SDS011;20119;48.334;16.206;2023-08-24T09:40:44;7.10;;;6.32;;
33810;SDS011;20119;48.334;16.206;2023-08-24T09:43:14;8.40;;;6.60;;
33810;SDS011;20119;48.334;16.206;2023-08-24T09:45:47;7.75;;;6.38;;
33810;SDS011;20119;48.334;16.206;2023-08-24T09:48:15;9.30;;;6.57;;
33810;SDS011;20119;48.334;16.206;2023-08-24T09:50:42;9.00;;;6.80;;
33810;SDS011;20119;48.334;16.206;2023-08-24T09:53:12;10.20;;;6.35;;
33810;SDS011;20119;48.334;16.206;2023-08-24T09:55:42;9.07;;;6.75;;
33810;SDS011;20119;48.334;16.206;2023-08-24T09:58:15;12.35;;;7.07;;
33810;SDS011;20119;48.334;16.206;2023-08-24T10:00:44;7.18;;;6.47;;
33810;SDS011;20119;48.334;16.206;2023-08-24T10:03:12;9.52;;;6.50;;
33810;SDS011;20119;48.334;16.206;2023-08-24T10:05:45;9.18;;;6.78;;
33810;SDS011;20119;48.334;16.206;2023-08-24T10:08:13;9.15;;;7.40;;
33810;SDS011;20119;48.334;16.206;2023-08-24T10:13:12;8.45;;;6.93;;
33810;SDS011;20119;48.334;16.206;2023-08-24T10:15:45;11.40;;;6.93;;
33810;SDS011;20119;48.334;16.206;2023-08-24T10:18:14;8.20;;;6.93;;
33810;SDS011;20119;48.334;16.206;2023-08-24T10:20:42;10.82;;;7.10;;
33810;SDS011;20119;48.334;16.206;2023-08-24T10:23:10;9.70;;;6.25;;
33810;SDS011;20119;48.334;16.206;2023-08-24T10:25:37;9.38;;;6.50;;
33810;SDS011;20119;48.334;16.206;2023-08-24T10:28:07;8.27;;;7.07;;
33810;SDS011;20119;48.334;16.206;2023-08-24T10:30:36;9.32;;;7.10;;
33810;SDS011;20119;48.334;16.206;2023-08-24T10:35:31;9.80;;;7.07;;
33810;SDS011;20119;48.334;16.206;2023-08-24T10:37:58;7.20;;;6.50;;
33810;SDS011;20119;48.334;16.206;2023-08-24T10:40:32;7.57;;;6.72;;
33810;SDS011;20119;48.334;16.206;2023-08-24T10:43:02;9.20;;;6.97;;
33810;SDS011;20119;48.334;16.206;2023-08-24T10:48:23;8.20;;;6.55;;
33810;SDS011;20119;48.334;16.206;2023-08-24T10:53:45;10.63;;;6.90;;
33810;SDS011;20119;48.334;16.206;2023-08-24T10:56:13;7.18;;;6.25;;
33810;SDS011;20119;48.334;16.206;2023-08-24T10:58:41;7.35;;;6.25;;
33810;SDS011;20119;48.334;16.206;2023-08-24T11:01:15;8.32;;;6.60;;
33810;SDS011;20119;48.334;16.206;2023-08-24T11:03:48;8.15;;;6.45;;
33810;SDS011;20119;48.334;16.206;2023-08-24T11:06:20;8.43;;;6.50;;
33810;SDS011;20119;48.334;16.206;2023-08-24T11:08:48;8.38;;;6.50;;
33810;SDS011;20119;48.334;16.206;2023-08-24T11:11:19;10.57;;;6.47;;
33810;SDS011;20119;48.334;16.206;2023-08-24T11:16:44;8.35;;;6.60;;
33810;SDS011;20119;48.334;16.206;2023-08-24T11:19:12;7.57;;;6.70;;
33810;SDS011;20119;48.334;16.206;2023-08-24T11:21:40;7.45;;;6.70;;
33810;SDS011;20119;48.334;16.206;2023-08-24T11:24:08;7.25;;;6.40;;
33810;SDS011;20119;48.334;16.206;2023-08-24T11:26:39;9.57;;;6.18;;
33810;SDS011;20119;48.334;16.206;2023-08-24T11:29:07;9.63;;;6.60;;
33810;SDS011;20119;48.334;16.206;2023-08-24T11:31:35;6.75;;;6.05;;
33810;SDS011;20119;48.334;16.206;2023-08-24T11:34:04;7.53;;;6.25;;
33810;SDS011;20119;48.334;16.206;2023-08-24T11:36:40;7.05;;;6.35;;
33810;SDS011;20119;48.334;16.206;2023-08-24T11:39:13;8.52;;;6.30;;
33810;SDS011;20119;48.334;16.206;2023-08-24T11:41:41;9.15;;;6.10;;
33810;SDS011;20119;48.334;16.206;2023-08-24T11:44:09;7.13;;;6.00;;
33810;SDS011;20119;48.334;16.206;2023-08-24T11:46:36;12.32;;;6.20;;
33810;SDS011;20119;48.334;16.206;2023-08-24T11:49:05;6.65;;;5.93;;
33810;SDS011;20119;48.334;16.206;2023-08-24T11:51:33;10.00;;;6.47;;
33810;SDS011;20119;48.334;16.206;2023-08-24T11:54:00;8.50;;;6.60;;
33810;SDS011;20119;48.334;16.206;2023-08-24T11:56:27;9.05;;;5.82;;
33810;SDS011;20119;48.334;16.206;2023-08-24T11:58:54;8.85;;;5.95;;
33810;SDS011;20119;48.334;16.206;2023-08-24T12:01:21;11.32;;;5.88;;
33810;SDS011;20119;48.334;16.206;2023-08-24T12:03:49;7.43;;;6.32;;
33810;SDS011;20119;48.334;16.206;2023-08-24T12:06:18;7.30;;;5.97;;
33810;SDS011;20119;48.334;16.206;2023-08-24T12:08:45;10.27;;;6.20;;
33810;SDS011;20119;48.334;16.206;2023-08-24T12:11:13;6.25;;;5.65;;
33810;SDS011;20119;48.334;16.206;2023-08-24T12:13:44;13.15;;;5.95;;
33810;SDS011;20119;48.334;16.206;2023-08-24T12:16:13;10.40;;;5.70;;
33810;SDS011;20119;48.334;16.206;2023-08-24T12:18:47;6.10;;;5.50;;
33810;SDS011;20119;48.334;16.206;2023-08-24T12:21:20;7.38;;;5.95;;
33810;SDS011;20119;48.334;16.206;2023-08-24T12:23:59;6.07;;;5.53;;
33810;SDS011;20119;48.334;16.206;2023-08-24T12:26:29;6.35;;;5.75;;
33810;SDS011;20119;48.334;16.206;2023-08-24T12:28:59;6.90;;;5.80;;
33810;SDS011;20119;48.334;16.206;2023-08-24T12:31:28;7.85;;;5.90;;
33810;SDS011;20119;48.334;16.206;2023-08-24T12:33:58;6.78;;;5.68;;
33810;SDS011;20119;48.334;16.206;2023-08-24T12:36:28;7.22;;;5.65;;
33810;SDS011;20119;48.334;16.206;2023-08-24T12:38:55;7.03;;;5.55;;
33810;SDS011;20119;48.334;16.206;2023-08-24T12:41:22;8.15;;;6.00;;
33810;SDS011;20119;48.334;16.206;2023-08-24T12:43:49;7.10;;;5.45;;
33810;SDS011;20119;48.334;16.206;2023-08-24T12:46:17;7.55;;;5.65;;
33810;SDS011;20119;48.334;16.206;2023-08-24T12:48:44;7.55;;;5.85;;
33810;SDS011;20119;48.334;16.206;2023-08-24T12:51:14;7.88;;;5.75;;
33810;SDS011;20119;48.334;16.206;2023-08-24T12:53:42;6.50;;;5.43;;
33810;SDS011;20119;48.334;16.206;2023-08-24T12:56:09;6.95;;;5.47;;
33810;SDS011;20119;48.334;16.206;2023-08-24T12:58:36;7.78;;;5.60;;
33810;SDS011;20119;48.334;16.206;2023-08-24T13:01:03;12.02;;;5.97;;
33810;SDS011;20119;48.334;16.206;2023-08-24T13:03:30;7.45;;;5.47;;
33810;SDS011;20119;48.334;16.206;2023-08-24T13:05:58;8.23;;;5.63;;
33810;SDS011;20119;48.334;16.206;2023-08-24T13:08:25;6.07;;;5.28;;
33810;SDS011;20119;48.334;16.206;2023-08-24T13:10:53;6.18;;;5.55;;
33810;SDS011;20119;48.334;16.206;2023-08-24T13:13:20;7.00;;;5.40;;
33810;SDS011;20119;48.334;16.206;2023-08-24T13:15:48;6.53;;;5.28;;
33810;SDS011;20119;48.334;16.206;2023-08-24T13:18:15;13.07;;;5.10;;
33810;SDS011;20119;48.334;16.206;2023-08-24T13:20:42;6.20;;;5.07;;
33810;SDS011;20119;48.334;16.206;2023-08-24T13:23:09;6.05;;;5.35;;
33810;SDS011;20119;48.334;16.206;2023-08-24T13:25:36;8.90;;;5.70;;
33810;SDS011;20119;48.334;16.206;2023-08-24T13:28:04;6.03;;;5.43;;
33810;SDS011;20119;48.334;16.206;2023-08-24T13:30:31;9.98;;;6.15;;
33810;SDS011;20119;48.334;16.206;2023-08-24T13:32:59;6.40;;;5.35;;
33810;SDS011;20119;48.334;16.206;2023-08-24T13:35:26;9.75;;;5.35;;
33810;SDS011;20119;48.334;16.206;2023-08-24T13:37:53;6.50;;;5.28;;
33810;SDS011;20119;48.334;16.206;2023-08-24T13:40:20;7.82;;;5.32;;
33810;SDS011;20119;48.334;16.206;2023-08-24T13:42:47;6.03;;;5.18;;
33810;SDS011;20119;48.334;16.206;2023-08-24T13:45:15;6.97;;;5.50;;
33810;SDS011;20119;48.334;16.206;2023-08-24T13:47:42;6.40;;;5.43;;
33810;SDS011;20119;48.334;16.206;2023-08-24T13:50:09;8.15;;;5.55;;
33810;SDS011;20119;48.334;16.206;2023-08-24T13:52:36;7.60;;;5.38;;
33810;SDS011;20119;48.334;16.206;2023-08-24T13:55:04;7.00;;;5.40;;
33810;SDS011;20119;48.334;16.206;2023-08-24T13:57:31;7.93;;;5.10;;
33810;SDS011;20119;48.334;16.206;2023-08-24T13:59:58;5.88;;;5.28;;
33810;SDS011;20119;48.334;16.206;2023-08-24T14:02:27;7.78;;;5.13;;
33810;SDS011;20119;48.334;16.206;2023-08-24T14:04:54;8.45;;;5.10;;
33810;SDS011;20119;48.334;16.206;2023-08-24T14:07:21;6.38;;;4.95;;
33810;SDS011;20119;48.334;16.206;2023-08-24T14:09:48;6.93;;;4.90;;
33810;SDS011;20119;48.334;16.206;2023-08-24T14:12:15;5.28;;;4.75;;
33810;SDS011;20119;48.334;16.206;2023-08-24T14:14:42;8.40;;;4.90;;
33810;SDS011;20119;48.334;16.206;2023-08-24T14:17:08;6.40;;;4.82;;
33810;SDS011;20119;48.334;16.206;2023-08-24T14:19:37;6.70;;;5.22;;
33810;SDS011;20119;48.334;16.206;2023-08-24T14:22:04;5.43;;;4.75;;
33810;SDS011;20119;48.334;16.206;2023-08-24T14:24:30;6.38;;;4.88;;
33810;SDS011;20119;48.334;16.206;2023-08-24T14:26:59;8.45;;;4.78;;
33810;SDS011;20119;48.334;16.206;2023-08-24T14:29:26;6.40;;;4.85;;
33810;SDS011;20119;48.334;16.206;2023-08-24T14:31:53;7.18;;;5.20;;
33810;SDS011;20119;48.334;16.206;2023-08-24T14:34:20;5.43;;;4.93;;
33810;SDS011;20119;48.334;16.206;2023-08-24T14:36:48;6.28;;;4.93;;
33810;SDS011;20119;48.334;16.206;2023-08-24T14:39:15;7.93;;;5.00;;
33810;SDS011;20119;48.334;16.206;2023-08-24T14:41:42;7.25;;;5.20;;
33810;SDS011;20119;48.334;16.206;2023-08-24T14:44:09;8.10;;;6.18;;
33810;SDS011;20119;48.334;16.206;2023-08-24T14:46:36;6.80;;;6.07;;
33810;SDS011;20119;48.334;16.206;2023-08-24T14:49:03;9.07;;;5.78;;
33810;SDS011;20119;48.334;16.206;2023-08-24T14:51:30;10.95;;;6.40;;
33810;SDS011;20119;48.334;16.206;2023-08-24T14:53:59;7.45;;;6.05;;
33810;SDS011;20119;48.334;16.206;2023-08-24T14:56:25;7.60;;;6.07;;
33810;SDS011;20119;48.334;16.206;2023-08-24T14:58:52;7.72;;;5.93;;
33810;SDS011;20119;48.334;16.206;2023-08-24T15:01:19;9.60;;;6.30;;
33810;SDS011;20119;48.334;16.206;2023-08-24T15:03:46;10.50;;;6.30;;
33810;SDS011;20119;48.334;16.206;2023-08-24T15:06:13;9.70;;;6.18;;
33810;SDS011;20119;48.334;16.206;2023-08-24T15:08:40;7.38;;;6.07;;
33810;SDS011;20119;48.334;16.206;2023-08-24T15:11:09;11.05;;;6.65;;
33810;SDS011;20119;48.334;16.206;2023-08-24T15:13:37;11.05;;;6.00;;
33810;SDS011;20119;48.334;16.206;2023-08-24T15:16:04;10.77;;;6.10;;
33810;SDS011;20119;48.334;16.206;2023-08-24T15:18:31;7.88;;;6.30;;
33810;SDS011;20119;48.334;16.206;2023-08-24T15:20:58;7.13;;;6.18;;
33810;SDS011;20119;48.334;16.206;2023-08-24T15:23:25;7.97;;;6.13;;
33810;SDS011;20119;48.334;16.206;2023-08-24T15:25:54;7.53;;;6.13;;
33810;SDS011;20119;48.334;16.206;2023-08-24T15:28:23;7.47;;;6.13;;
33810;SDS011;20119;48.334;16.206;2023-08-24T15:30:51;8.73;;;6.00;;
33810;SDS011;20119;48.334;16.206;2023-08-24T15:33:18;9.45;;;6.28;;
33810;SDS011;20119;48.334;16.206;2023-08-24T15:35:46;9.30;;;7.03;;
33810;SDS011;20119;48.334;16.206;2023-08-24T15:38:12;10.48;;;6.18;;
33810;SDS011;20119;48.334;16.206;2023-08-24T15:40:40;11.40;;;6.60;;
33810;SDS011;20119;48.334;16.206;2023-08-24T15:43:07;10.43;;;6.25;;
33810;SDS011;20119;48.334;16.206;2023-08-24T15:45:35;9.55;;;5.97;;
33810;SDS011;20119;48.334;16.206;2023-08-24T15:48:02;9.73;;;6.07;;
33810;SDS011;20119;48.334;16.206;2023-08-24T15:50:30;8.73;;;6.18;;
33810;SDS011;20119;48.334;16.206;2023-08-24T15:52:57;8.25;;;5.60;;
33810;SDS011;20119;48.334;16.206;2023-08-24T15:55:27;7.80;;;5.82;;
33810;SDS011;20119;48.334;16.206;2023-08-24T15:57:54;10.55;;;5.82;;
33810;SDS011;20119;48.334;16.206;2023-08-24T16:00:21;7.72;;;6.05;;
33810;SDS011;20119;48.334;16.206;2023-08-24T16:02:50;9.95;;;6.00;;
33810;SDS011;20119;48.334;16.206;2023-08-24T16:05:17;9.00;;;6.22;;
33810;SDS011;20119;48.334;16.206;2023-08-24T16:07:44;9.27;;;6.03;;
33810;SDS011;20119;48.334;16.206;2023-08-24T16:10:11;10.38;;;5.78;;
33810;SDS011;20119;48.334;16.206;2023-08-24T16:12:38;8.60;;;6.20;;
33810;SDS011;20119;48.334;16.206;2023-08-24T16:15:05;7.18;;;5.47;;
33810;SDS011;20119;48.334;16.206;2023-08-24T16:17:32;10.02;;;5.70;;
33810;SDS011;20119;48.334;16.206;2023-08-24T16:20:02;7.50;;;5.65;;
33810;SDS011;20119;48.334;16.206;2023-08-24T16:22:32;8.65;;;5.75;;
33810;SDS011;20119;48.334;16.206;2023-08-24T16:24:59;10.45;;;5.80;;
33810;SDS011;20119;48.334;16.206;2023-08-24T16:27:26;6.63;;;5.82;;
33810;SDS011;20119;48.334;16.206;2023-08-24T16:29:55;10.98;;;5.80;;
33810;SDS011;20119;48.334;16.206;2023-08-24T16:32:23;9.45;;;5.47;;
33810;SDS011;20119;48.334;16.206;2023-08-24T16:34:50;7.50;;;5.82;;
33810;SDS011;20119;48.334;16.206;2023-08-24T16:37:18;9.85;;;5.97;;
33810;SDS011;20119;48.334;16.206;2023-08-24T16:39:45;7.80;;;5.93;;
33810;SDS011;20119;48.334;16.206;2023-08-24T16:42:12;7.45;;;5.57;;
33810;SDS011;20119;48.334;16.206;2023-08-24T16:44:39;6.57;;;5.95;;
33810;SDS011;20119;48.334;16.206;2023-08-24T16:47:06;9.32;;;5.90;;
33810;SDS011;20119;48.334;16.206;2023-08-24T16:49:34;6.18;;;5.10;;
33810;SDS011;20119;48.334;16.206;2023-08-24T16:52:01;10.05;;;5.90;;
33810;SDS011;20119;48.334;16.206;2023-08-24T16:54:29;7.93;;;6.05;;
33810;SDS011;20119;48.334;16.206;2023-08-24T16:56:57;9.38;;;5.80;;
33810;SDS011;20119;48.334;16.206;2023-08-24T16:59:23;8.57;;;6.32;;
33810;SDS011;20119;48.334;16.206;2023-08-24T17:01:54;13.48;;;6.45;;
33810;SDS011;20119;48.334;16.206;2023-08-24T17:04:21;7.63;;;6.10;;
33810;SDS011;20119;48.334;16.206;2023-08-24T17:06:48;6.82;;;6.13;;
33810;SDS011;20119;48.334;16.206;2023-08-24T17:09:15;8.02;;;5.75;;
33810;SDS011;20119;48.334;16.206;2023-08-24T17:11:43;7.72;;;6.63;;
33810;SDS011;20119;48.334;16.206;2023-08-24T17:14:10;8.77;;;6.57;;
33810;SDS011;20119;48.334;16.206;2023-08-24T17:16:37;9.55;;;6.10;;
33810;SDS011;20119;48.334;16.206;2023-08-24T17:19:05;8.82;;;6.20;;
33810;SDS011;20119;48.334;16.206;2023-08-24T17:21:32;7.85;;;6.40;;
33810;SDS011;20119;48.334;16.206;2023-08-24T17:23:59;11.75;;;6.32;;
33810;SDS011;20119;48.334;16.206;2023-08-24T17:26:27;11.48;;;6.85;;
33810;SDS011;20119;48.334;16.206;2023-08-24T17:28:56;7.32;;;6.07;;
33810;SDS011;20119;48.334;16.206;2023-08-24T17:31:23;7.28;;;6.35;;
33810;SDS011;20119;48.334;16.206;2023-08-24T17:33:50;8.20;;;6.50;;
33810;SDS011;20119;48.334;16.206;2023-08-24T17:36:17;7.57;;;6.72;;
33810;SDS011;20119;48.334;16.206;2023-08-24T17:38:44;11.23;;;6.97;;
33810;SDS011;20119;48.334;16.206;2023-08-24T17:41:10;10.23;;;6.63;;
33810;SDS011;20119;48.334;16.206;2023-08-24T17:43:38;9.23;;;6.50;;
33810;SDS011;20119;48.334;16.206;2023-08-24T17:46:06;10.20;;;6.60;;
33810;SDS011;20119;48.334;16.206;2023-08-24T17:48:33;10.00;;;7.25;;
33810;SDS011;20119;48.334;16.206;2023-08-24T17:51:00;10.32;;;6.95;;
33810;SDS011;20119;48.334;16.206;2023-08-24T17:53:30;11.68;;;7.47;;
33810;SDS011;20119;48.334;16.206;2023-08-24T17:55:59;8.77;;;7.28;;
33810;SDS011;20119;48.334;16.206;2023-08-24T17:58:26;8.02;;;7.32;;
33810;SDS011;20119;48.334;16.206;2023-08-24T18:00:54;9.73;;;7.00;;
33810;SDS011;20119;48.334;16.206;2023-08-24T18:03:22;7.97;;;7.15;;
33810;SDS011;20119;48.334;16.206;2023-08-24T18:05:51;9.52;;;7.93;;
33810;SDS011;20119;48.334;16.206;2023-08-24T18:08:19;11.05;;;7.60;;
33810;SDS011;20119;48.334;16.206;2023-08-24T18:10:46;8.35;;;7.22;;
33810;SDS011;20119;48.334;16.206;2023-08-24T18:13:13;8.10;;;7.30;;
33810;SDS011;20119;48.334;16.206;2023-08-24T18:15:40;9.70;;;7.70;;
33810;SDS011;20119;48.334;16.206;2023-08-24T18:18:07;8.88;;;7.97;;
33810;SDS011;20119;48.334;16.206;2023-08-24T18:20:35;9.23;;;7.90;;
33810;SDS011;20119;48.334;16.206;2023-08-24T18:23:03;14.23;;;7.45;;
33810;SDS011;20119;48.334;16.206;2023-08-24T18:25:30;11.80;;;7.80;;
33810;SDS011;20119;48.334;16.206;2023-08-24T18:27:57;8.43;;;7.47;;
33810;SDS011;20119;48.334;16.206;2023-08-24T18:30:24;8.43;;;7.57;;
33810;SDS011;20119;48.334;16.206;2023-08-24T18:32:51;11.43;;;7.80;;
33810;SDS011;20119;48.334;16.206;2023-08-24T18:35:18;9.70;;;7.45;;
33810;SDS011;20119;48.334;16.206;2023-08-24T18:37:46;9.38;;;7.40;;
33810;SDS011;20119;48.334;16.206;2023-08-24T18:40:13;8.15;;;7.45;;
33810;SDS011;20119;48.334;16.206;2023-08-24T18:42:40;8.25;;;7.22;;
33810;SDS011;20119;48.334;16.206;2023-08-24T18:45:07;10.95;;;7.72;;
33810;SDS011;20119;48.334;16.206;2023-08-24T18:47:35;9.02;;;7.38;;
33810;SDS011;20119;48.334;16.206;2023-08-24T18:50:02;10.38;;;7.63;;
33810;SDS011;20119;48.334;16.206;2023-08-24T18:52:32;8.45;;;7.07;;
33810;SDS011;20119;48.334;16.206;2023-08-24T18:55:02;8.40;;;7.60;;
33810;SDS011;20119;48.334;16.206;2023-08-24T18:57:31;10.10;;;7.73;;
33810;SDS011;20119;48.334;16.206;2023-08-24T18:59:58;8.48;;;7.60;;
33810;SDS011;20119;48.334;16.206;2023-08-24T19:02:25;11.52;;;7.38;;
33810;SDS011;20119;48.334;16.206;2023-08-24T19:04:52;9.10;;;7.55;;
33810;SDS011;20119;48.334;16.206;2023-08-24T19:07:19;12.00;;;7.30;;
33810;SDS011;20119;48.334;16.206;2023-08-24T19:09:47;11.98;;;7.45;;
33810;SDS011;20119;48.334;16.206;2023-08-24T19:12:15;10.68;;;7.40;;
33810;SDS011;20119;48.334;16.206;2023-08-24T19:14:42;9.32;;;7.60;;
33810;SDS011;20119;48.334;16.206;2023-08-24T19:17:09;8.98;;;7.30;;
33810;SDS011;20119;48.334;16.206;2023-08-24T19:19:36;8.18;;;7.38;;
33810;SDS011;20119;48.334;16.206;2023-08-24T19:22:03;8.98;;;6.95;;
33810;SDS011;20119;48.334;16.206;2023-08-24T19:24:31;12.52;;;7.70;;
33810;SDS011;20119;48.334;16.206;2023-08-24T19:26:58;9.88;;;7.38;;
33810;SDS011;20119;48.334;16.206;2023-08-24T19:29:27;8.85;;;7.22;;
33810;SDS011;20119;48.334;16.206;2023-08-24T19:31:55;9.63;;;7.20;;
33810;SDS011;20119;48.334;16.206;2023-08-24T19:34:22;8.50;;;7.22;;
33810;SDS011;20119;48.334;16.206;2023-08-24T19:36:49;8.93;;;7.68;;
33810;SDS011;20119;48.334;16.206;2023-08-24T19:39:16;9.50;;;7.72;;
33810;SDS011;20119;48.334;16.206;2023-08-24T19:41:43;8.00;;;7.13;;
33810;SDS011;20119;48.334;16.206;2023-08-24T19:44:21;8.65;;;7.00;;
33810;SDS011;20119;48.334;16.206;2023-08-24T19:46:50;8.40;;;6.63;;
33810;SDS011;20119;48.334;16.206;2023-08-24T19:49:18;7.78;;;6.90;;
33810;SDS011;20119;48.334;16.206;2023-08-24T19:51:46;7.63;;;6.72;;
33810;SDS011;20119;48.334;16.206;2023-08-24T19:54:14;8.55;;;7.10;;